createdAt,value
2019-03-03T00:01:39.857Z,9.62
2019-03-03T00:04:12.406Z,9.67
2019-03-03T00:06:42.452Z,9.88
2019-03-03T00:09:12.810Z,9.65
2019-03-03T00:11:48.337Z,9.42
2019-03-03T00:14:18.290Z,9.58
2019-03-03T00:16:48.292Z,9.70
2019-03-03T00:19:18.499Z,9.70
2019-03-03T00:21:48.688Z,9.67
2019-03-03T00:24:18.694Z,9.68
2019-03-03T00:26:48.578Z,9.64
2019-03-03T00:29:18.777Z,9.58
2019-03-03T00:31:48.977Z,9.52
2019-03-03T00:34:19.348Z,9.52
2019-03-03T00:37:10.044Z,9.49
2019-03-03T00:40:05.665Z,9.44
2019-03-03T00:42:46.802Z,9.30
2019-03-03T00:45:34.476Z,8.80
2019-03-03T00:48:17.557Z,8.66
2019-03-03T00:50:55.041Z,7.85
2019-03-03T00:53:53.114Z,7.76
2019-03-03T00:56:31.728Z,8.08
2019-03-03T00:59:14.337Z,8.08
2019-03-03T01:01:49.279Z,7.92
2019-03-03T01:04:41.330Z,7.73
2019-03-03T01:07:19.013Z,7.27
2019-03-03T01:09:56.202Z,7.83
2019-03-03T01:12:38.394Z,8.19
2019-03-03T01:15:31.671Z,8.00
2019-03-03T01:18:23.793Z,7.96
2019-03-03T01:21:00.971Z,7.68
2019-03-03T01:23:52.786Z,8.17
2019-03-03T01:26:23.003Z,8.45
2019-03-03T01:28:53.161Z,8.47
2019-03-03T01:31:23.234Z,8.40
2019-03-03T01:33:53.572Z,8.48
2019-03-03T01:36:24.170Z,8.59
2019-03-03T01:38:54.168Z,8.41
2019-03-03T01:41:24.160Z,8.54
2019-03-03T01:43:54.403Z,8.57
2019-03-03T01:46:24.616Z,8.72
2019-03-03T01:48:54.633Z,8.01
2019-03-03T01:51:24.650Z,8.14
2019-03-03T01:53:54.858Z,7.88
2019-03-03T01:56:25.047Z,8.03
2019-03-03T01:58:55.047Z,8.26
2019-03-03T02:01:25.465Z,8.40
2019-03-03T02:03:55.479Z,7.81
2019-03-03T02:06:25.621Z,7.50
2019-03-03T02:08:55.793Z,7.49
2019-03-03T02:11:26.093Z,8.00
2019-03-03T02:13:56.091Z,8.08
2019-03-03T02:16:26.023Z,7.89
2019-03-03T02:18:56.236Z,7.58
2019-03-03T02:21:26.529Z,7.66
2019-03-03T02:23:56.558Z,7.64
2019-03-03T02:26:26.660Z,7.90
2019-03-03T02:28:56.968Z,7.97
2019-03-03T02:31:27.192Z,7.48
2019-03-03T02:33:57.366Z,7.36
2019-03-03T02:36:27.512Z,7.13
2019-03-03T02:38:57.725Z,6.94
2019-03-03T02:41:27.860Z,6.85
2019-03-03T02:43:58.063Z,7.25
2019-03-03T02:46:28.290Z,7.44
2019-03-03T02:48:58.315Z,7.36
2019-03-03T02:51:28.332Z,7.40
2019-03-03T02:53:58.577Z,7.51
2019-03-03T02:56:28.792Z,7.42
2019-03-03T02:58:58.924Z,7.43
2019-03-03T03:01:33.151Z,7.47
2019-03-03T03:04:03.485Z,7.38
2019-03-03T03:06:58.444Z,7.32
2019-03-03T03:09:50.289Z,7.40
2019-03-03T03:12:28.711Z,7.34
2019-03-03T03:15:15.120Z,7.33
2019-03-03T03:18:16.289Z,7.43
2019-03-03T03:21:03.620Z,7.01
2019-03-03T03:23:58.492Z,6.44
2019-03-03T03:26:50.239Z,6.81
2019-03-03T03:29:44.867Z,6.78
2019-03-03T03:32:26.418Z,7.04
2019-03-03T03:35:19.128Z,6.96
2019-03-03T03:38:04.214Z,6.96
2019-03-03T03:40:56.287Z,6.85
2019-03-03T03:44:03.772Z,6.92
2019-03-03T03:46:52.814Z,6.47
2019-03-03T03:49:33.325Z,6.74
2019-03-03T03:52:29.023Z,6.75
2019-03-03T03:55:15.637Z,6.62
2019-03-03T03:58:02.231Z,6.38
2019-03-03T04:01:03.384Z,6.50
2019-03-03T04:03:51.001Z,6.56
2019-03-03T04:06:29.094Z,6.41
2019-03-03T04:09:30.455Z,5.83
2019-03-03T04:12:19.502Z,5.83
2019-03-03T04:15:17.571Z,5.84
2019-03-03T04:18:03.752Z,5.65
2019-03-03T04:21:04.823Z,5.33
2019-03-03T04:23:53.899Z,4.85
2019-03-03T04:26:32.931Z,5.42
2019-03-03T04:29:25.174Z,5.72
2019-03-03T04:32:17.008Z,5.87
2019-03-03T04:35:14.164Z,5.79
2019-03-03T04:38:15.343Z,5.61
2019-03-03T04:41:03.278Z,5.25
2019-03-03T04:43:51.242Z,5.10
2019-03-03T04:46:46.095Z,4.66
2019-03-03T04:49:44.145Z,4.39
2019-03-03T04:52:22.546Z,4.39
2019-03-03T04:55:20.527Z,4.35
2019-03-03T04:58:00.283Z,4.31
2019-03-03T05:00:56.602Z,4.39
2019-03-03T05:03:50.582Z,4.18
2019-03-03T05:06:30.427Z,4.08
2019-03-03T05:09:15.073Z,4.50
2019-03-03T05:12:26.993Z,4.47
2019-03-03T05:15:01.984Z,4.78
2019-03-03T05:17:54.059Z,4.68
2019-03-03T05:20:24.386Z,5.06
2019-03-03T05:22:54.615Z,5.56
2019-03-03T05:25:24.695Z,5.85
2019-03-03T05:27:54.716Z,6.09
2019-03-03T05:30:24.969Z,6.09
2019-03-03T05:32:55.226Z,5.85
2019-03-03T05:35:25.282Z,6.06
2019-03-03T05:37:55.607Z,5.73
2019-03-03T05:40:26.034Z,5.37
2019-03-03T05:42:55.933Z,5.51
2019-03-03T05:45:26.239Z,5.87
2019-03-03T05:47:56.449Z,6.01
2019-03-03T05:50:26.349Z,6.15
2019-03-03T05:52:56.265Z,6.09
2019-03-03T05:55:26.486Z,6.16
2019-03-03T05:57:56.694Z,5.51
2019-03-03T06:00:26.812Z,5.68
2019-03-03T06:02:56.819Z,6.31
2019-03-03T06:05:27.010Z,6.54
2019-03-03T06:07:57.221Z,6.85
2019-03-03T06:10:27.120Z,7.01
2019-03-03T06:12:57.228Z,7.05
2019-03-03T06:15:27.543Z,7.66
2019-03-03T06:17:57.521Z,8.12
2019-03-03T06:20:27.927Z,8.97
2019-03-03T06:22:58.147Z,9.37
2019-03-03T06:25:28.268Z,9.74
2019-03-03T06:27:58.386Z,9.81
2019-03-03T06:30:28.599Z,9.84
2019-03-03T06:32:58.834Z,9.47
2019-03-03T06:35:28.844Z,10.54
2019-03-03T06:37:58.852Z,10.72
2019-03-03T06:40:29.073Z,11.22
2019-03-03T06:42:59.329Z,11.32
2019-03-03T06:45:29.485Z,11.23
2019-03-03T06:47:59.415Z,10.90
2019-03-03T06:50:29.673Z,10.82
2019-03-03T06:52:59.959Z,10.52
2019-03-03T06:55:29.917Z,10.97
2019-03-03T06:58:00.114Z,11.21
2019-03-03T07:00:30.150Z,11.58
2019-03-03T07:03:00.343Z,11.96
2019-03-03T07:05:30.593Z,12.01
2019-03-03T07:08:00.886Z,12.65
2019-03-03T07:10:31.063Z,13.07
2019-03-03T07:13:01.125Z,12.92
2019-03-03T07:15:37.401Z,12.89
2019-03-03T07:18:17.643Z,12.74
2019-03-03T07:21:09.773Z,13.34
2019-03-03T07:23:39.857Z,12.62
2019-03-03T07:26:10.119Z,13.88
2019-03-03T07:28:40.359Z,13.09
2019-03-03T07:31:10.510Z,13.82
2019-03-03T07:33:43.898Z,13.30
2019-03-03T07:36:14.325Z,13.71
2019-03-03T07:38:44.474Z,14.44
2019-03-03T07:41:15.015Z,15.10
2019-03-03T07:43:45.256Z,15.36
2019-03-03T07:46:15.485Z,15.59
2019-03-03T07:48:45.618Z,16.23
2019-03-03T07:51:15.834Z,16.33
2019-03-03T07:53:46.049Z,16.93
2019-03-03T07:56:15.950Z,16.15
2019-03-03T07:58:47.864Z,16.62
2019-03-03T08:01:18.054Z,16.80
2019-03-03T08:03:48.269Z,17.60
2019-03-03T08:06:18.287Z,17.83
2019-03-03T08:08:48.268Z,16.87
2019-03-03T08:11:18.473Z,16.26
2019-03-03T08:13:48.656Z,16.36
2019-03-03T08:16:18.652Z,17.32
2019-03-03T08:18:48.972Z,17.45
2019-03-03T08:21:18.890Z,18.23
2019-03-03T08:23:48.801Z,19.23
2019-03-03T08:26:19.037Z,18.75
2019-03-03T08:28:49.303Z,17.32
2019-03-03T08:31:19.345Z,17.67
2019-03-03T08:33:49.261Z,18.35
2019-03-03T08:36:19.478Z,18.54
2019-03-03T08:38:50.177Z,18.21
2019-03-03T08:41:20.188Z,18.25
2019-03-03T08:44:06.997Z,17.50
2019-03-03T08:47:14.573Z,18.72
2019-03-03T08:50:03.617Z,18.84
2019-03-03T08:52:42.758Z,20.03
2019-03-03T08:55:30.999Z,20.54
2019-03-03T08:58:21.240Z,20.26
2019-03-03T09:00:56.131Z,20.47
2019-03-03T09:03:47.970Z,20.70
2019-03-03T09:06:40.121Z,21.53
2019-03-03T09:09:35.422Z,20.41
2019-03-03T09:12:10.165Z,21.50
2019-03-03T09:15:01.143Z,21.06
2019-03-03T09:17:49.807Z,21.56
2019-03-03T09:20:44.890Z,22.00
2019-03-03T09:23:25.871Z,21.61
2019-03-03T09:26:24.263Z,21.92
2019-03-03T09:29:04.514Z,21.16
2019-03-03T09:31:52.356Z,21.38
2019-03-03T09:34:59.353Z,21.50
2019-03-03T09:37:49.157Z,19.54
2019-03-03T09:40:37.002Z,19.51
2019-03-03T09:43:16.055Z,18.11
2019-03-03T09:46:03.705Z,18.22
2019-03-03T09:48:51.450Z,18.22
2019-03-03T09:51:46.556Z,18.55
2019-03-03T09:54:31.256Z,17.35
2019-03-03T09:57:11.446Z,15.65
2019-03-03T09:59:55.046Z,15.46
2019-03-03T10:02:49.686Z,15.87
2019-03-03T10:05:28.619Z,15.88
2019-03-03T10:08:17.854Z,15.30
2019-03-03T10:11:09.865Z,15.50
2019-03-03T10:14:03.990Z,15.33
2019-03-03T10:16:40.453Z,16.24
2019-03-03T10:19:25.719Z,15.55
2019-03-03T10:22:14.705Z,15.66
2019-03-03T10:24:57.768Z,15.79
2019-03-03T10:27:45.775Z,15.16
2019-03-03T10:30:46.913Z,15.41
2019-03-03T10:33:48.147Z,16.02
2019-03-03T10:36:42.968Z,16.12
2019-03-03T10:39:31.297Z,16.11
2019-03-03T10:42:27.957Z,16.11
2019-03-03T10:45:29.232Z,15.81
2019-03-03T10:48:07.499Z,15.62
2019-03-03T10:50:55.119Z,15.55
2019-03-03T10:53:52.996Z,15.33
2019-03-03T10:56:34.378Z,15.71
2019-03-03T10:59:13.519Z,15.13
2019-03-03T11:01:56.458Z,14.76
2019-03-03T11:04:44.156Z,15.38
2019-03-03T11:07:39.102Z,15.74
2019-03-03T11:10:28.909Z,15.18
2019-03-03T11:13:17.993Z,14.72
2019-03-03T11:16:09.800Z,15.33
2019-03-03T11:18:57.937Z,15.47
2019-03-03T11:21:50.073Z,16.12
2019-03-03T11:24:37.460Z,16.18
2019-03-03T11:27:20.358Z,15.74
2019-03-03T11:30:04.791Z,15.89
2019-03-03T11:32:54.900Z,16.43
2019-03-03T11:35:46.811Z,16.84
2019-03-03T11:38:35.748Z,16.98
2019-03-03T11:41:32.251Z,19.12
2019-03-03T11:44:27.713Z,19.87
2019-03-03T11:47:08.073Z,20.32
2019-03-03T11:49:53.453Z,20.73
2019-03-03T11:52:31.573Z,21.69
2019-03-03T11:55:13.135Z,19.91
2019-03-03T11:57:52.957Z,21.17
2019-03-03T12:00:36.837Z,21.45
2019-03-03T12:03:34.804Z,21.36
2019-03-03T12:06:29.774Z,22.79
2019-03-03T12:09:21.591Z,21.77
2019-03-03T12:12:10.609Z,21.47
2019-03-03T12:15:14.558Z,20.82
2019-03-03T12:17:55.887Z,20.42
2019-03-03T12:20:33.891Z,20.78
2019-03-03T12:23:25.400Z,19.54
2019-03-03T12:26:20.157Z,19.29
2019-03-03T12:29:14.292Z,18.54
2019-03-03T12:32:15.713Z,18.35
2019-03-03T12:34:52.315Z,17.74
2019-03-03T12:37:36.966Z,17.28
2019-03-03T12:40:37.360Z,16.91
2019-03-03T12:43:16.939Z,17.47
2019-03-03T12:46:05.875Z,16.80
2019-03-03T12:48:54.840Z,16.69
2019-03-03T12:51:56.021Z,16.64
2019-03-03T12:54:39.948Z,17.56
2019-03-03T12:57:27.410Z,17.89
2019-03-03T13:00:22.449Z,17.64
2019-03-03T13:03:14.326Z,17.98
2019-03-03T13:06:09.284Z,18.74
2019-03-03T13:09:13.212Z,19.00
2019-03-03T13:11:51.431Z,19.42
2019-03-03T13:14:32.310Z,18.34
2019-03-03T13:17:27.822Z,17.54
2019-03-03T13:20:12.573Z,16.86
2019-03-03T13:22:54.168Z,16.28
2019-03-03T13:25:36.469Z,17.00
2019-03-03T13:28:21.607Z,18.54
2019-03-03T13:31:10.617Z,17.38
2019-03-03T13:33:58.386Z,18.26
2019-03-03T13:36:50.123Z,15.90
2019-03-03T13:39:57.642Z,16.72
2019-03-03T13:42:43.709Z,16.71
2019-03-03T13:45:15.234Z,17.05
2019-03-03T13:47:45.249Z,16.46
2019-03-03T13:50:17.161Z,17.39
2019-03-03T13:52:47.347Z,16.18
2019-03-03T13:55:17.587Z,16.57
2019-03-03T13:57:47.692Z,16.19
2019-03-03T14:00:21.182Z,15.26
2019-03-03T14:02:51.955Z,15.25
2019-03-03T14:05:23.829Z,15.48
2019-03-03T14:07:53.948Z,15.38
2019-03-03T14:10:24.160Z,14.52
2019-03-03T14:12:54.175Z,14.65
2019-03-03T14:15:24.380Z,14.19
2019-03-03T14:17:54.576Z,14.35
2019-03-03T14:20:25.235Z,13.89
2019-03-03T14:22:55.887Z,14.08
2019-03-03T14:25:26.194Z,13.82
2019-03-03T14:27:56.545Z,13.06
2019-03-03T14:30:27.326Z,13.12
2019-03-03T14:32:57.484Z,13.14
2019-03-03T14:35:28.879Z,13.23
2019-03-03T14:37:59.150Z,13.00
2019-03-03T14:40:29.529Z,12.69
2019-03-03T14:42:59.803Z,13.55
2019-03-03T14:45:30.415Z,13.84
2019-03-03T14:48:00.631Z,13.60
2019-03-03T14:50:30.766Z,14.17
2019-03-03T14:53:00.980Z,14.32
2019-03-03T14:55:31.185Z,13.25
2019-03-03T14:58:01.325Z,13.82
2019-03-03T15:00:34.201Z,13.93
2019-03-03T15:03:06.403Z,13.87
2019-03-03T15:05:36.833Z,14.09
2019-03-03T15:08:06.967Z,13.92
2019-03-03T15:10:37.205Z,13.11
2019-03-03T15:13:07.415Z,13.81
2019-03-03T15:15:37.652Z,14.16
2019-03-03T15:18:07.778Z,14.22
2019-03-03T15:20:37.998Z,13.63
2019-03-03T15:23:08.303Z,13.24
2019-03-03T15:25:38.428Z,13.59
2019-03-03T15:28:08.571Z,12.86
2019-03-03T15:30:38.779Z,13.20
2019-03-03T15:33:09.139Z,12.52
2019-03-03T15:35:39.397Z,13.31
2019-03-03T15:38:09.620Z,13.52
2019-03-03T15:40:39.746Z,13.62
2019-03-03T15:43:10.088Z,12.90
2019-03-03T15:45:40.442Z,13.24
2019-03-03T15:48:10.869Z,12.82
2019-03-03T15:50:41.239Z,12.91
2019-03-03T15:53:11.258Z,12.20
2019-03-03T15:55:41.480Z,12.42
2019-03-03T15:58:11.698Z,12.00
2019-03-03T16:00:41.997Z,12.46
2019-03-03T16:03:12.220Z,12.13
2019-03-03T16:05:42.472Z,12.36
2019-03-03T16:08:12.700Z,12.48
2019-03-03T16:10:42.727Z,12.32
2019-03-03T16:13:12.903Z,12.35
2019-03-03T16:15:43.165Z,12.02
2019-03-03T16:18:13.379Z,12.36
2019-03-03T16:20:43.808Z,12.10
2019-03-03T16:23:14.092Z,12.33
2019-03-03T16:25:44.384Z,12.18
2019-03-03T16:28:14.614Z,11.84
2019-03-03T16:30:47.832Z,11.51
2019-03-03T16:33:20.869Z,11.46
2019-03-03T16:35:49.868Z,11.25
2019-03-03T16:38:25.643Z,11.49
2019-03-03T16:40:55.823Z,11.44
2019-03-03T16:43:26.020Z,11.66
2019-03-03T16:45:56.291Z,11.81
2019-03-03T16:48:27.196Z,11.44
2019-03-03T16:50:57.267Z,11.53
2019-03-03T16:53:27.514Z,11.79
2019-03-03T16:55:57.672Z,11.94
2019-03-03T16:58:27.743Z,11.82
2019-03-03T17:00:58.000Z,11.79
2019-03-03T17:03:28.234Z,11.29
2019-03-03T17:05:58.418Z,11.17
2019-03-03T17:08:28.646Z,11.25
2019-03-03T17:10:58.943Z,11.15
2019-03-03T17:13:29.163Z,11.03
2019-03-03T17:15:59.216Z,11.25
2019-03-03T17:18:30.605Z,11.47
2019-03-03T17:21:03.869Z,11.49
2019-03-03T17:23:34.176Z,11.64
2019-03-03T17:26:04.371Z,11.63
2019-03-03T17:28:34.504Z,11.56
2019-03-03T17:31:04.699Z,11.37
2019-03-03T17:33:34.907Z,11.26
2019-03-03T17:36:05.182Z,10.66
2019-03-03T17:38:35.384Z,10.51
2019-03-03T17:41:05.540Z,10.42
2019-03-03T17:43:38.771Z,9.84
2019-03-03T17:46:09.183Z,9.60
2019-03-03T17:48:39.407Z,10.08
2019-03-03T17:51:09.675Z,9.89
2019-03-03T17:53:39.825Z,9.72
2019-03-03T17:56:10.177Z,9.97
2019-03-03T17:58:40.374Z,10.00
2019-03-03T18:01:10.465Z,10.11
2019-03-03T18:03:40.686Z,10.02
2019-03-03T18:06:10.914Z,9.78
2019-03-03T18:08:41.142Z,9.76
2019-03-03T18:11:11.286Z,9.27
2019-03-03T18:13:41.471Z,9.09
2019-03-03T18:16:11.593Z,9.47
2019-03-03T18:18:41.729Z,9.65
2019-03-03T18:21:11.956Z,9.22
2019-03-03T18:23:42.183Z,8.91
2019-03-03T18:26:12.290Z,8.77
2019-03-03T18:28:42.331Z,8.46
2019-03-03T18:31:12.539Z,8.91
2019-03-03T18:33:42.828Z,9.03
2019-03-03T18:36:14.550Z,9.22
2019-03-03T18:38:44.517Z,9.21
2019-03-03T18:41:14.719Z,8.57
2019-03-03T18:43:45.170Z,7.86
2019-03-03T18:46:15.407Z,8.41
2019-03-03T18:48:45.546Z,8.64
2019-03-03T18:51:15.952Z,8.73
2019-03-03T18:53:46.000Z,8.33
2019-03-03T18:56:16.218Z,8.01
2019-03-03T18:58:46.498Z,7.85
2019-03-03T19:01:16.665Z,8.04
2019-03-03T19:03:46.784Z,8.18
2019-03-03T19:06:17.007Z,8.24
2019-03-03T19:08:47.261Z,7.74
2019-03-03T19:11:17.275Z,8.04
2019-03-03T19:13:47.300Z,8.26
2019-03-03T19:16:17.510Z,7.95
2019-03-03T19:18:47.726Z,7.54
2019-03-03T19:21:17.847Z,7.89
2019-03-03T19:23:47.965Z,7.31
2019-03-03T19:26:19.030Z,6.82
2019-03-03T19:28:49.474Z,6.60
2019-03-03T19:31:20.975Z,6.51
2019-03-03T19:33:53.953Z,7.22
2019-03-03T19:36:24.088Z,7.39
2019-03-03T19:38:54.105Z,6.68
2019-03-03T19:41:46.353Z,6.64
2019-03-03T19:44:16.848Z,6.38
2019-03-03T19:46:47.222Z,6.88
2019-03-03T19:49:17.357Z,7.43
2019-03-03T19:51:47.586Z,7.17
2019-03-03T19:54:17.825Z,7.25
2019-03-03T19:56:47.829Z,6.77
2019-03-03T19:59:17.961Z,7.11
2019-03-03T20:01:48.166Z,7.00
2019-03-03T20:04:18.377Z,7.24
2019-03-03T20:06:48.416Z,7.27
2019-03-03T20:09:19.724Z,7.27
2019-03-03T20:11:49.946Z,7.33
2019-03-03T20:14:20.173Z,7.35
2019-03-03T20:16:50.477Z,7.35
2019-03-03T20:19:20.715Z,7.33
2019-03-03T20:21:50.809Z,7.24
2019-03-03T20:24:21.106Z,7.21
2019-03-03T20:26:51.326Z,7.13
2019-03-03T20:29:21.548Z,7.13
2019-03-03T20:31:52.111Z,6.90
2019-03-03T20:34:22.249Z,7.02
2019-03-03T20:36:52.475Z,6.94
2019-03-03T20:39:22.761Z,6.99
2019-03-03T20:41:52.838Z,7.04
2019-03-03T20:44:22.924Z,7.00
2019-03-03T20:46:53.414Z,6.88
2019-03-03T20:49:23.676Z,6.80
2019-03-03T20:51:53.593Z,6.78
2019-03-03T20:54:23.830Z,6.72
2019-03-03T20:56:53.847Z,6.62
2019-03-03T20:59:24.409Z,6.61
2019-03-03T21:01:54.638Z,6.65
2019-03-03T21:04:24.901Z,6.69
2019-03-03T21:06:55.287Z,6.60
2019-03-03T21:09:26.168Z,6.62
2019-03-03T21:11:56.379Z,6.52
2019-03-03T21:14:26.652Z,6.40
2019-03-03T21:16:56.673Z,6.41
2019-03-03T21:19:26.732Z,6.51
2019-03-03T21:21:56.952Z,6.46
2019-03-03T21:24:27.241Z,6.39
2019-03-03T21:26:57.299Z,6.38
2019-03-03T21:29:27.316Z,6.39
2019-03-03T21:31:57.524Z,6.37
2019-03-03T21:34:27.721Z,6.31
2019-03-03T21:36:57.630Z,6.32
2019-03-03T21:39:27.666Z,6.21
2019-03-03T21:41:58.791Z,6.17
2019-03-03T21:44:29.366Z,5.99
2019-03-03T21:46:59.858Z,5.63
2019-03-03T21:49:30.253Z,5.28
2019-03-03T21:52:00.608Z,5.59
2019-03-03T21:54:30.887Z,5.67
2019-03-03T21:57:00.902Z,5.47
2019-03-03T21:59:31.542Z,5.27
2019-03-03T22:02:01.746Z,5.58
2019-03-03T22:04:31.955Z,5.45
2019-03-03T22:07:01.861Z,5.12
2019-03-03T22:09:31.785Z,5.41
2019-03-03T22:12:01.981Z,5.59
2019-03-03T22:14:32.025Z,5.68
2019-03-03T22:17:02.342Z,5.68
2019-03-03T22:19:32.542Z,5.64
2019-03-03T22:22:03.073Z,5.65
2019-03-03T22:24:33.302Z,5.42
2019-03-03T22:27:03.514Z,5.41
2019-03-03T22:29:33.704Z,5.37
2019-03-03T22:32:03.737Z,5.36
2019-03-03T22:34:33.689Z,5.39
2019-03-03T22:37:03.889Z,5.35
2019-03-03T22:39:34.073Z,5.44
2019-03-03T22:42:04.000Z,5.66
2019-03-03T22:44:33.906Z,5.81
2019-03-03T22:47:04.405Z,5.28
2019-03-03T22:49:34.748Z,5.13
2019-03-03T22:52:04.870Z,5.53
2019-03-03T22:54:35.181Z,5.84
2019-03-03T22:57:05.293Z,5.20
2019-03-03T22:59:35.208Z,5.40
2019-03-03T23:02:05.396Z,5.72
2019-03-03T23:05:15.997Z,5.80
2019-03-03T23:08:12.699Z,5.79
2019-03-03T23:11:01.897Z,5.84
2019-03-03T23:13:47.205Z,5.90
2019-03-03T23:16:50.313Z,5.82
2019-03-03T23:19:51.195Z,5.78
2019-03-03T23:22:58.941Z,5.71
2019-03-03T23:25:58.001Z,5.62
2019-03-03T23:28:28.246Z,5.71
2019-03-03T23:30:59.017Z,5.71
2019-03-03T23:33:29.138Z,5.71
2019-03-03T23:35:59.316Z,5.66
2019-03-03T23:38:29.322Z,5.71
2019-03-03T23:41:00.144Z,5.52
2019-03-03T23:43:30.327Z,5.54
2019-03-03T23:46:00.551Z,5.65
2019-03-03T23:48:30.562Z,5.72
2019-03-03T23:51:00.747Z,5.62
2019-03-03T23:53:30.994Z,5.57
2019-03-03T23:56:00.892Z,5.58
2019-03-03T23:58:30.902Z,5.56
